createdAt,value
2023-01-04T00:02:21.012Z,99396.63
2023-01-04T00:07:23.836Z,99394.94
2023-01-04T00:12:26.739Z,99393.19
2023-01-04T00:17:30.924Z,99391.25
2023-01-04T00:22:35.029Z,99384.94
2023-01-04T00:27:37.743Z,99378.00
2023-01-04T00:32:41.979Z,99360.56
2023-01-04T00:37:49.972Z,99347.38
2023-01-04T00:42:54.699Z,99335.19
2023-01-04T00:47:58.778Z,99329.47
2023-01-04T00:53:01.518Z,99311.00
2023-01-04T00:58:04.336Z,99319.53
2023-01-04T01:03:08.841Z,99310.75
2023-01-04T01:08:26.961Z,99300.16
2023-01-04T01:13:30.069Z,99285.38
2023-01-04T01:18:34.743Z,99273.06
2023-01-04T01:23:37.500Z,99271.25
2023-01-04T01:28:40.948Z,99249.22
2023-01-04T01:33:47.001Z,99257.75
2023-01-04T01:38:50.397Z,99261.19
2023-01-04T01:43:55.793Z,99264.75
2023-01-04T01:49:04.772Z,99252.19
2023-01-04T01:54:11.671Z,99246.69
2023-01-04T01:59:16.335Z,99240.56
2023-01-04T02:04:20.420Z,99246.44
2023-01-04T02:09:24.420Z,99239.38
2023-01-04T02:14:30.851Z,99231.13
2023-01-04T02:19:55.012Z,99221.41
2023-01-04T02:25:20.471Z,99209.09
2023-01-04T02:31:00.271Z,99209.09
2023-01-04T02:36:11.854Z,99187.28
2023-01-04T02:41:24.916Z,99189.34
2023-01-04T02:46:30.950Z,99189.47
2023-01-04T02:51:37.466Z,99187.25
2023-01-04T02:56:56.340Z,99171.34
2023-01-04T03:02:34.752Z,99161.69
2023-01-04T03:07:47.208Z,99141.72
2023-01-04T03:12:55.672Z,99135.84
2023-01-04T03:18:01.607Z,99123.06
2023-01-04T03:23:26.146Z,99123.72
2023-01-04T03:28:51.315Z,99122.19
2023-01-04T03:34:11.834Z,99111.69
2023-01-04T03:39:40.218Z,99105.72
2023-01-04T03:45:09.968Z,99092.69
2023-01-04T03:50:17.314Z,99065.16
2023-01-04T03:55:22.425Z,99063.53
2023-01-04T04:00:28.151Z,99056.81
2023-01-04T04:05:48.595Z,99042.25
2023-01-04T04:17:34.758Z,99031.47
2023-01-04T04:22:37.518Z,99033.88
2023-01-04T04:27:40.223Z,99027.63
2023-01-04T04:32:44.890Z,99016.66
2023-01-04T04:37:47.684Z,99016.47
2023-01-04T04:42:50.381Z,99010.13
2023-01-04T04:47:54.662Z,99000.22
2023-01-04T04:52:57.790Z,99014.22
2023-01-04T04:58:00.549Z,99009.69
2023-01-04T05:03:04.918Z,99000.59
2023-01-04T05:08:07.760Z,98992.44
2023-01-04T05:13:13.176Z,99001.03
2023-01-04T05:18:19.511Z,98975.13
2023-01-04T05:23:23.322Z,98962.72
2023-01-04T05:28:26.186Z,98994.25
2023-01-04T05:33:32.873Z,98995.38
2023-01-04T05:38:35.919Z,98971.44
2023-01-04T05:43:40.060Z,98989.47
2023-01-04T05:48:44.127Z,98972.41
2023-01-04T05:53:49.233Z,98969.97
2023-01-04T05:58:52.769Z,98948.56
2023-01-04T06:03:57.903Z,98950.88
2023-01-04T06:09:00.684Z,98930.13
2023-01-04T06:14:03.427Z,98930.06
2023-01-04T06:19:07.553Z,98931.63
2023-01-04T06:24:11.486Z,98931.44
2023-01-04T06:29:14.294Z,98934.94
2023-01-04T06:34:18.351Z,98921.94
2023-01-04T06:39:21.313Z,98886.09
2023-01-04T06:44:24.077Z,98885.88
2023-01-04T06:49:29.403Z,98886.63
2023-01-04T06:54:33.707Z,98888.84
2023-01-04T06:59:36.559Z,98896.53
2023-01-04T07:04:40.735Z,98895.22
2023-01-04T07:09:43.575Z,98903.84
2023-01-04T07:14:47.297Z,98894.50
2023-01-04T07:19:53.730Z,98897.06
2023-01-04T07:24:58.209Z,98899.31
2023-01-04T07:30:01.195Z,98909.84
2023-01-04T07:35:05.997Z,98906.00
2023-01-04T07:40:10.701Z,98890.69
2023-01-04T07:45:14.399Z,98881.47
2023-01-04T07:50:19.600Z,98875.84
2023-01-04T07:55:27.060Z,98865.97
2023-01-04T08:00:33.092Z,98885.84
2023-01-04T08:05:39.154Z,98889.31
2023-01-04T08:10:42.129Z,98894.41
2023-01-04T08:15:46.170Z,98887.78
2023-01-04T08:21:03.236Z,98890.84
2023-01-04T08:26:10.434Z,98904.84
2023-01-04T08:31:17.333Z,98910.16
2023-01-04T08:36:27.966Z,98911.34
2023-01-04T08:46:55.616Z,98893.78
2023-01-04T08:52:00.027Z,98886.34
2023-01-04T08:57:06.484Z,98886.47
2023-01-04T09:02:22.506Z,98887.84
2023-01-04T09:07:27.600Z,98888.56
2023-01-04T09:12:30.511Z,98875.56
2023-01-04T09:17:33.259Z,98875.25
2023-01-04T09:22:38.324Z,98880.84
2023-01-04T09:27:41.352Z,98882.34
2023-01-04T09:32:44.342Z,98877.66
2023-01-04T09:37:48.440Z,98871.44
2023-01-04T09:43:20.036Z,98864.06
2023-01-04T09:48:25.254Z,98853.09
2023-01-04T09:53:34.787Z,98858.91
2023-01-04T09:58:43.049Z,98859.63
2023-01-04T10:03:52.896Z,98858.69
2023-01-04T10:09:02.903Z,98849.63
2023-01-04T10:14:22.878Z,98828.03
2023-01-04T10:25:23.812Z,98836.53
2023-01-04T10:30:34.790Z,98823.72
2023-01-04T10:35:38.395Z,98815.66
2023-01-04T10:40:42.703Z,98801.38
2023-01-04T10:45:56.748Z,98802.50
2023-01-04T10:51:09.627Z,98784.69
2023-01-04T10:56:25.349Z,98800.31
2023-01-04T11:01:33.448Z,98791.00
2023-01-04T11:06:43.293Z,98790.88
2023-01-04T11:11:48.860Z,98766.06
2023-01-04T11:16:58.527Z,98785.44
2023-01-04T11:22:08.899Z,98764.00
2023-01-04T11:27:20.883Z,98749.00
2023-01-04T11:32:39.361Z,98746.69
2023-01-04T11:37:43.664Z,98738.47
2023-01-04T11:42:49.601Z,98727.81
2023-01-04T11:47:55.184Z,98707.84
2023-01-04T11:52:58.319Z,98708.91
2023-01-04T11:58:11.931Z,98712.81
2023-01-04T12:03:16.585Z,98700.94
2023-01-04T12:08:31.676Z,98700.59
2023-01-04T12:13:36.391Z,98692.34
2023-01-04T12:19:07.415Z,98679.88
2023-01-04T12:24:10.397Z,98672.75
2023-01-04T12:29:51.480Z,98667.06
2023-01-04T12:34:58.343Z,98660.84
2023-01-04T12:40:01.164Z,98651.91
2023-01-04T12:45:15.475Z,98638.22
2023-01-04T12:50:24.903Z,98636.63
2023-01-04T12:55:54.524Z,98626.13
2023-01-04T13:01:24.823Z,98611.44
2023-01-04T13:06:31.077Z,98618.56
2023-01-04T13:53:26.850Z,98577.28
2023-01-04T13:58:32.469Z,98570.66
2023-01-04T14:03:38.706Z,98580.34
2023-01-04T14:08:47.262Z,98573.91
2023-01-04T14:13:50.096Z,98587.13
2023-01-04T14:18:53.191Z,98573.53
2023-01-04T14:23:57.339Z,98570.59
2023-01-04T14:29:00.148Z,98567.69
2023-01-04T14:34:08.762Z,98554.00
2023-01-04T14:39:26.998Z,98556.69
2023-01-04T14:44:31.861Z,98556.69
2023-01-04T14:49:35.532Z,98555.84
2023-01-04T14:54:40.262Z,98570.88
2023-01-04T14:59:44.104Z,98570.25
2023-01-04T15:04:47.620Z,98573.78
2023-01-04T15:09:54.697Z,98572.22
2023-01-04T15:15:00.248Z,98579.50
2023-01-04T15:20:04.605Z,98561.25
2023-01-04T15:25:10.564Z,98560.00
2023-01-04T15:30:14.606Z,98538.22
2023-01-04T15:35:17.800Z,98547.91
2023-01-04T15:40:21.868Z,98545.50
2023-01-04T15:45:25.570Z,98537.50
2023-01-04T15:50:31.340Z,98540.41
2023-01-04T15:55:37.001Z,98533.38
2023-01-04T16:00:40.224Z,98539.69
2023-01-04T16:05:43.336Z,98515.72
2023-01-04T16:10:47.664Z,98523.59
2023-01-04T16:15:51.622Z,98511.25
2023-01-04T16:20:54.431Z,98507.72
2023-01-04T16:26:13.576Z,98508.31
2023-01-04T16:31:17.261Z,98498.75
2023-01-04T16:36:20.516Z,98497.28
2023-01-04T16:41:28.995Z,98513.13
2023-01-04T16:46:33.618Z,98514.97
2023-01-04T16:51:38.655Z,98509.63
2023-01-04T16:56:44.549Z,98511.06
2023-01-04T17:01:57.356Z,98502.19
2023-01-04T17:07:05.100Z,98490.44
2023-01-04T17:17:35.039Z,98507.69
2023-01-04T17:22:37.756Z,98500.66
2023-01-04T17:27:41.891Z,98490.13
2023-01-04T17:32:44.737Z,98505.72
2023-01-04T17:37:47.714Z,98489.72
2023-01-04T17:42:52.121Z,98498.72
2023-01-04T17:47:54.849Z,98489.28
2023-01-04T17:52:58.820Z,98467.81
2023-01-04T17:58:09.892Z,98458.13
2023-01-04T18:03:15.121Z,98454.81
2023-01-04T18:08:18.658Z,98473.81
2023-01-04T18:13:22.768Z,98465.56
2023-01-04T18:18:25.710Z,98486.41
2023-01-04T18:23:30.942Z,98486.13
2023-01-04T18:28:35.767Z,98469.94
2023-01-04T18:33:38.744Z,98482.44
2023-01-04T18:38:43.011Z,98457.34
2023-01-04T18:44:05.760Z,98461.56
2023-01-04T18:49:14.866Z,98471.50
2023-01-04T18:54:20.724Z,98478.84
2023-01-04T18:59:25.349Z,98495.41
2023-01-04T19:04:35.053Z,98505.81
2023-01-04T19:09:39.408Z,98500.03
2023-01-04T19:14:43.657Z,98485.56
2023-01-04T19:19:46.413Z,98484.94
2023-01-04T19:24:49.175Z,98468.25
2023-01-04T19:29:53.405Z,98488.88
2023-01-04T19:34:56.259Z,98517.22
2023-01-04T19:39:59.063Z,98534.06
2023-01-04T19:45:03.199Z,98549.94
2023-01-04T19:50:06.922Z,98520.84
2023-01-04T19:55:10.992Z,98476.50
2023-01-04T20:00:16.472Z,98485.38
2023-01-04T20:05:19.259Z,98508.25
2023-01-04T20:10:22.224Z,98505.91
2023-01-04T20:15:26.596Z,98506.75
2023-01-04T20:20:30.768Z,98496.81
2023-01-04T20:25:33.551Z,98510.72
2023-01-04T20:30:38.349Z,98517.63
2023-01-04T20:35:44.765Z,98510.19
2023-01-04T20:40:47.843Z,98495.41
2023-01-04T20:45:52.155Z,98503.16
2023-01-04T20:50:56.796Z,98518.69
2023-01-04T20:56:06.235Z,98508.59
2023-01-04T21:01:11.023Z,98491.38
2023-01-04T21:06:15.759Z,98491.44
2023-01-04T21:11:19.106Z,98495.34
2023-01-04T21:16:23.421Z,98489.44
2023-01-04T21:21:26.305Z,98486.31
2023-01-04T21:26:29.536Z,98492.06
2023-01-04T21:31:34.913Z,98489.06
2023-01-04T21:36:38.510Z,98484.97
2023-01-04T21:41:47.718Z,98485.13
2023-01-04T21:46:52.493Z,98492.72
2023-01-04T21:51:55.369Z,98481.66
2023-01-04T21:56:58.132Z,98472.81
2023-01-04T22:02:02.352Z,98489.66
2023-01-04T22:07:05.221Z,98494.00
2023-01-04T22:12:08.937Z,98475.16
2023-01-04T22:17:13.746Z,98473.59
2023-01-04T22:22:19.175Z,98483.56
2023-01-04T22:27:21.870Z,98483.00
2023-01-04T22:32:26.884Z,98482.13
2023-01-04T22:37:29.571Z,98481.88
2023-01-04T22:42:32.360Z,98448.88
2023-01-04T22:47:36.960Z,98455.19
2023-01-04T22:52:39.748Z,98495.47
2023-01-04T22:57:44.232Z,98481.16
2023-01-04T23:02:48.540Z,98480.00
2023-01-04T23:07:51.405Z,98484.25
2023-01-04T23:12:54.213Z,98483.97
2023-01-04T23:17:58.396Z,98472.44
2023-01-04T23:23:01.245Z,98471.63
2023-01-04T23:28:04.125Z,98465.44
2023-01-04T23:33:08.242Z,98488.84
2023-01-04T23:38:11.032Z,98492.38
2023-01-04T23:43:13.886Z,98476.38
2023-01-04T23:48:18.113Z,98473.31
2023-01-04T23:53:20.911Z,98470.22
2023-01-04T23:58:27.397Z,98476.84
